sensor_id;sensor_type;location;lat;lon;timestamp;pressure;altitude;pressure_sealevel;temperature;humidity
76448;BME280;65284;51.040;13.722;2023-05-10T00:02:23;99398.34;;;13.20;51.86
76448;BME280;65284;51.040;13.722;2023-05-10T00:04:50;99390.97;;;13.23;51.74
76448;BME280;65284;51.040;13.722;2023-05-10T00:07:17;99395.03;;;13.18;51.72
76448;BME280;65284;51.040;13.722;2023-05-10T00:09:44;99398.72;;;13.17;51.71
76448;BME280;65284;51.040;13.722;2023-05-10T00:12:11;99395.81;;;13.12;51.73
76448;BME280;65284;51.040;13.722;2023-05-10T00:14:37;99395.19;;;13.10;51.93
76448;BME280;65284;51.040;13.722;2023-05-10T00:17:04;99394.13;;;13.05;51.85
76448;BME280;65284;51.040;13.722;2023-05-10T00:19:30;99388.56;;;13.06;52.01
76448;BME280;65284;51.040;13.722;2023-05-10T00:21:57;99390.00;;;13.02;52.38
76448;BME280;65284;51.040;13.722;2023-05-10T00:24:23;99393.03;;;12.99;52.14
76448;BME280;65284;51.040;13.722;2023-05-10T00:26:50;99386.81;;;12.92;52.52
76448;BME280;65284;51.040;13.722;2023-05-10T00:29:16;99391.13;;;12.93;52.45
76448;BME280;65284;51.040;13.722;2023-05-10T00:31:43;99388.84;;;12.90;52.45
76448;BME280;65284;51.040;13.722;2023-05-10T00:34:09;99387.00;;;12.90;52.44
76448;BME280;65284;51.040;13.722;2023-05-10T00:36:36;99380.00;;;12.89;52.52
76448;BME280;65284;51.040;13.722;2023-05-10T00:39:03;99381.75;;;12.75;52.67
76448;BME280;65284;51.040;13.722;2023-05-10T00:41:30;99382.75;;;12.74;52.55
76448;BME280;65284;51.040;13.722;2023-05-10T00:43:59;99368.16;;;12.70;52.98
76448;BME280;65284;51.040;13.722;2023-05-10T00:46:26;99375.72;;;12.67;53.12
76448;BME280;65284;51.040;13.722;2023-05-10T00:48:53;99364.63;;;12.63;53.44
76448;BME280;65284;51.040;13.722;2023-05-10T00:51:20;99365.00;;;12.60;53.24
76448;BME280;65284;51.040;13.722;2023-05-10T00:53:46;99362.94;;;12.62;53.05
76448;BME280;65284;51.040;13.722;2023-05-10T00:56:15;99370.72;;;12.57;53.14
76448;BME280;65284;51.040;13.722;2023-05-10T00:58:42;99364.63;;;12.63;53.19
76448;BME280;65284;51.040;13.722;2023-05-10T01:01:09;99363.72;;;12.56;53.54
76448;BME280;65284;51.040;13.722;2023-05-10T01:03:37;99375.50;;;12.47;53.49
76448;BME280;65284;51.040;13.722;2023-05-10T01:06:03;99367.78;;;12.52;53.75
76448;BME280;65284;51.040;13.722;2023-05-10T01:08:30;99360.78;;;12.51;53.35
76448;BME280;65284;51.040;13.722;2023-05-10T01:10:56;99368.91;;;12.43;53.58
76448;BME280;65284;51.040;13.722;2023-05-10T01:13:30;99357.34;;;12.36;53.67
76448;BME280;65284;51.040;13.722;2023-05-10T01:15:57;99369.41;;;12.32;53.78
76448;BME280;65284;51.040;13.722;2023-05-10T01:18:25;99361.16;;;12.26;53.74
76448;BME280;65284;51.040;13.722;2023-05-10T01:21:03;99359.41;;;12.34;53.63
76448;BME280;65284;51.040;13.722;2023-05-10T01:34:21;99355.94;;;12.18;54.02
76448;BME280;65284;51.040;13.722;2023-05-10T01:37:02;99363.66;;;12.13;54.25
76448;BME280;65284;51.040;13.722;2023-05-10T01:42:11;99347.53;;;12.00;54.88
76448;BME280;65284;51.040;13.722;2023-05-10T01:44:49;99354.88;;;11.98;54.71
76448;BME280;65284;51.040;13.722;2023-05-10T01:48:05;99340.94;;;11.96;54.60
76448;BME280;65284;51.040;13.722;2023-05-10T01:50:34;99359.84;;;12.01;54.96
76448;BME280;65284;51.040;13.722;2023-05-10T01:53:02;99351.13;;;11.92;55.06
76448;BME280;65284;51.040;13.722;2023-05-10T01:55:35;99354.16;;;11.89;55.02
76448;BME280;65284;51.040;13.722;2023-05-10T01:58:08;99357.34;;;11.84;55.15
76448;BME280;65284;51.040;13.722;2023-05-10T02:00:36;99346.78;;;11.76;55.46
76448;BME280;65284;51.040;13.722;2023-05-10T02:03:07;99349.06;;;11.79;55.60
76448;BME280;65284;51.040;13.722;2023-05-10T02:05:35;99350.84;;;11.72;55.76
76448;BME280;65284;51.040;13.722;2023-05-10T02:08:05;99347.91;;;11.67;55.83
76448;BME280;65284;51.040;13.722;2023-05-10T02:10:34;99347.53;;;11.70;55.92
76448;BME280;65284;51.040;13.722;2023-05-10T02:13:01;99348.72;;;11.68;55.53
76448;BME280;65284;51.040;13.722;2023-05-10T02:15:29;99347.81;;;11.60;56.09
76448;BME280;65284;51.040;13.722;2023-05-10T02:17:57;99347.00;;;11.60;56.15
76448;BME280;65284;51.040;13.722;2023-05-10T02:20:25;99340.00;;;11.59;56.03
76448;BME280;65284;51.040;13.722;2023-05-10T02:22:54;99348.19;;;11.57;56.32
76448;BME280;65284;51.040;13.722;2023-05-10T02:25:23;99343.69;;;11.58;56.51
76448;BME280;65284;51.040;13.722;2023-05-10T02:27:50;99344.97;;;11.62;56.40
76448;BME280;65284;51.040;13.722;2023-05-10T02:30:18;99339.94;;;11.52;56.41
76448;BME280;65284;51.040;13.722;2023-05-10T02:32:46;99340.22;;;11.43;56.75
76448;BME280;65284;51.040;13.722;2023-05-10T02:35:16;99345.53;;;11.43;56.83
76448;BME280;65284;51.040;13.722;2023-05-10T02:37:46;99342.22;;;11.41;56.79
76448;BME280;65284;51.040;13.722;2023-05-10T02:40:15;99345.25;;;11.37;57.18
76448;BME280;65284;51.040;13.722;2023-05-10T02:42:47;99340.94;;;11.36;56.72
76448;BME280;65284;51.040;13.722;2023-05-10T02:45:18;99342.41;;;11.24;57.35
76448;BME280;65284;51.040;13.722;2023-05-10T02:47:45;99338.06;;;11.23;57.60
76448;BME280;65284;51.040;13.722;2023-05-10T02:50:12;99341.53;;;11.24;57.48
76448;BME280;65284;51.040;13.722;2023-05-10T02:52:42;99336.13;;;11.17;57.79
76448;BME280;65284;51.040;13.722;2023-05-10T02:55:12;99337.81;;;11.18;58.14
76448;BME280;65284;51.040;13.722;2023-05-10T02:57:49;99341.00;;;11.13;58.11
76448;BME280;65284;51.040;13.722;2023-05-10T03:00:17;99340.81;;;11.15;57.92
76448;BME280;65284;51.040;13.722;2023-05-10T03:02:43;99342.53;;;11.08;58.29
76448;BME280;65284;51.040;13.722;2023-05-10T03:05:10;99340.44;;;11.03;58.49
76448;BME280;65284;51.040;13.722;2023-05-10T03:07:36;99344.91;;;11.03;58.70
76448;BME280;65284;51.040;13.722;2023-05-10T03:10:04;99342.34;;;10.95;58.83
76448;BME280;65284;51.040;13.722;2023-05-10T03:15:42;99340.66;;;10.93;59.03
76448;BME280;65284;51.040;13.722;2023-05-10T03:18:18;99350.38;;;10.86;59.37
76448;BME280;65284;51.040;13.722;2023-05-10T03:20:48;99341.69;;;10.92;59.35
76448;BME280;65284;51.040;13.722;2023-05-10T03:23:30;99340.94;;;10.84;59.68
76448;BME280;65284;51.040;13.722;2023-05-10T03:26:00;99340.13;;;10.83;59.59
76448;BME280;65284;51.040;13.722;2023-05-10T03:28:28;99338.09;;;10.85;59.71
76448;BME280;65284;51.040;13.722;2023-05-10T03:30:55;99343.75;;;10.82;59.94
76448;BME280;65284;51.040;13.722;2023-05-10T03:33:23;99333.84;;;10.76;59.80
76448;BME280;65284;51.040;13.722;2023-05-10T03:35:49;99330.22;;;10.77;59.84
76448;BME280;65284;51.040;13.722;2023-05-10T03:38:15;99325.25;;;10.74;60.02
76448;BME280;65284;51.040;13.722;2023-05-10T03:40:42;99318.41;;;10.80;60.05
76448;BME280;65284;51.040;13.722;2023-05-10T03:43:08;99328.84;;;10.81;60.14
76448;BME280;65284;51.040;13.722;2023-05-10T03:45:35;99324.69;;;10.79;59.96
76448;BME280;65284;51.040;13.722;2023-05-10T03:48:01;99322.50;;;10.82;60.16
76448;BME280;65284;51.040;13.722;2023-05-10T03:50:28;99342.13;;;10.81;60.16
76448;BME280;65284;51.040;13.722;2023-05-10T03:52:54;99350.03;;;10.89;60.04
76448;BME280;65284;51.040;13.722;2023-05-10T03:55:21;99345.72;;;10.88;59.95
76448;BME280;65284;51.040;13.722;2023-05-10T03:57:48;99345.53;;;10.90;60.18
76448;BME280;65284;51.040;13.722;2023-05-10T04:00:16;99346.72;;;10.87;60.25
76448;BME280;65284;51.040;13.722;2023-05-10T04:02:43;99346.06;;;10.85;60.07
76448;BME280;65284;51.040;13.722;2023-05-10T04:05:11;99352.84;;;10.88;60.59
76448;BME280;65284;51.040;13.722;2023-05-10T04:07:38;99349.38;;;10.87;60.48
76448;BME280;65284;51.040;13.722;2023-05-10T04:10:05;99355.34;;;10.89;60.09
76448;BME280;65284;51.040;13.722;2023-05-10T04:12:31;99354.50;;;10.89;60.71
76448;BME280;65284;51.040;13.722;2023-05-10T04:14:57;99350.38;;;10.86;60.53
76448;BME280;65284;51.040;13.722;2023-05-10T04:17:24;99348.03;;;10.91;60.53
76448;BME280;65284;51.040;13.722;2023-05-10T04:19:50;99346.94;;;11.01;60.06
76448;BME280;65284;51.040;13.722;2023-05-10T04:22:19;99351.22;;;11.02;59.95
76448;BME280;65284;51.040;13.722;2023-05-10T04:24:45;99349.84;;;11.06;60.04
76448;BME280;65284;51.040;13.722;2023-05-10T04:27:12;99346.69;;;11.10;59.78
76448;BME280;65284;51.040;13.722;2023-05-10T04:29:38;99344.47;;;11.14;60.21
76448;BME280;65284;51.040;13.722;2023-05-10T04:32:04;99328.00;;;11.19;59.99
76448;BME280;65284;51.040;13.722;2023-05-10T04:34:31;99339.53;;;11.26;59.53
76448;BME280;65284;51.040;13.722;2023-05-10T04:37:00;99342.03;;;11.27;59.52
76448;BME280;65284;51.040;13.722;2023-05-10T04:39:26;99339.28;;;11.35;59.39
76448;BME280;65284;51.040;13.722;2023-05-10T04:41:53;99344.94;;;11.32;59.38
76448;BME280;65284;51.040;13.722;2023-05-10T04:44:19;99337.34;;;11.44;59.27
76448;BME280;65284;51.040;13.722;2023-05-10T04:46:45;99341.47;;;11.47;59.15
76448;BME280;65284;51.040;13.722;2023-05-10T04:49:12;99334.16;;;11.49;59.30
76448;BME280;65284;51.040;13.722;2023-05-10T04:51:38;99323.97;;;11.52;58.82
76448;BME280;65284;51.040;13.722;2023-05-10T04:54:05;99322.03;;;11.61;58.83
76448;BME280;65284;51.040;13.722;2023-05-10T04:56:32;99324.63;;;11.69;58.63
76448;BME280;65284;51.040;13.722;2023-05-10T04:58:59;99313.41;;;11.74;58.37
76448;BME280;65284;51.040;13.722;2023-05-10T05:01:25;99326.31;;;11.77;58.20
76448;BME280;65284;51.040;13.722;2023-05-10T05:03:52;99329.09;;;11.83;58.42
76448;BME280;65284;51.040;13.722;2023-05-10T05:06:19;99329.75;;;11.86;58.18
76448;BME280;65284;51.040;13.722;2023-05-10T05:08:47;99329.53;;;12.02;57.86
76448;BME280;65284;51.040;13.722;2023-05-10T05:11:15;99317.50;;;12.06;57.50
76448;BME280;65284;51.040;13.722;2023-05-10T05:13:42;99326.78;;;12.10;57.67
76448;BME280;65284;51.040;13.722;2023-05-10T05:16:08;99321.53;;;12.17;57.35
76448;BME280;65284;51.040;13.722;2023-05-10T05:18:35;99323.59;;;12.21;57.29
76448;BME280;65284;51.040;13.722;2023-05-10T05:21:01;99323.00;;;12.19;57.40
76448;BME280;65284;51.040;13.722;2023-05-10T05:23:28;99332.50;;;12.28;57.22
76448;BME280;65284;51.040;13.722;2023-05-10T05:25:54;99322.75;;;12.36;57.32
76448;BME280;65284;51.040;13.722;2023-05-10T05:28:20;99330.34;;;12.39;57.19
76448;BME280;65284;51.040;13.722;2023-05-10T05:30:47;99324.25;;;12.45;57.19
76448;BME280;65284;51.040;13.722;2023-05-10T05:33:14;99329.72;;;12.58;57.02
76448;BME280;65284;51.040;13.722;2023-05-10T05:35:41;99318.69;;;12.61;56.80
76448;BME280;65284;51.040;13.722;2023-05-10T05:38:10;99307.53;;;12.72;56.38
76448;BME280;65284;51.040;13.722;2023-05-10T05:40:37;99317.53;;;12.70;56.45
76448;BME280;65284;51.040;13.722;2023-05-10T05:43:03;99306.94;;;12.77;56.41
76448;BME280;65284;51.040;13.722;2023-05-10T05:45:30;99311.56;;;12.90;56.14
76448;BME280;65284;51.040;13.722;2023-05-10T05:47:56;99320.44;;;12.97;55.81
76448;BME280;65284;51.040;13.722;2023-05-10T05:50:23;99323.91;;;12.97;55.94
76448;BME280;65284;51.040;13.722;2023-05-10T05:52:49;99318.41;;;12.99;56.06
76448;BME280;65284;51.040;13.722;2023-05-10T05:55:16;99324.81;;;13.05;55.41
76448;BME280;65284;51.040;13.722;2023-05-10T05:57:43;99325.28;;;13.15;55.73
76448;BME280;65284;51.040;13.722;2023-05-10T06:00:09;99331.03;;;13.18;55.57
76448;BME280;65284;51.040;13.722;2023-05-10T06:02:36;99338.44;;;13.16;55.52
76448;BME280;65284;51.040;13.722;2023-05-10T06:05:03;99322.94;;;13.27;55.71
76448;BME280;65284;51.040;13.722;2023-05-10T06:07:29;99329.09;;;13.34;55.14
76448;BME280;65284;51.040;13.722;2023-05-10T06:09:56;99329.59;;;13.44;54.87
76448;BME280;65284;51.040;13.722;2023-05-10T06:12:22;99341.13;;;13.51;55.14
76448;BME280;65284;51.040;13.722;2023-05-10T06:14:48;99339.47;;;13.50;54.94
76448;BME280;65284;51.040;13.722;2023-05-10T06:17:15;99340.72;;;13.54;54.99
76448;BME280;65284;51.040;13.722;2023-05-10T06:19:41;99337.66;;;13.57;55.17
76448;BME280;65284;51.040;13.722;2023-05-10T06:22:08;99346.16;;;13.68;54.78
76448;BME280;65284;51.040;13.722;2023-05-10T06:24:34;99341.25;;;13.71;54.77
76448;BME280;65284;51.040;13.722;2023-05-10T06:27:01;99345.00;;;13.90;54.32
76448;BME280;65284;51.040;13.722;2023-05-10T06:29:28;99347.06;;;13.88;54.81
76448;BME280;65284;51.040;13.722;2023-05-10T06:31:54;99347.91;;;13.88;54.52
76448;BME280;65284;51.040;13.722;2023-05-10T06:34:21;99344.66;;;13.93;54.61
76448;BME280;65284;51.040;13.722;2023-05-10T06:36:47;99350.03;;;14.06;54.35
76448;BME280;65284;51.040;13.722;2023-05-10T06:39:14;99358.66;;;14.08;53.97
76448;BME280;65284;51.040;13.722;2023-05-10T06:41:40;99344.50;;;14.15;53.73
76448;BME280;65284;51.040;13.722;2023-05-10T06:44:07;99352.13;;;14.18;54.03
76448;BME280;65284;51.040;13.722;2023-05-10T06:46:34;99345.56;;;14.20;54.00
76448;BME280;65284;51.040;13.722;2023-05-10T06:49:01;99346.00;;;14.30;53.86
76448;BME280;65284;51.040;13.722;2023-05-10T06:51:28;99348.06;;;14.35;53.93
76448;BME280;65284;51.040;13.722;2023-05-10T06:53:54;99339.84;;;14.37;53.99
76448;BME280;65284;51.040;13.722;2023-05-10T06:56:21;99346.03;;;14.50;53.10
76448;BME280;65284;51.040;13.722;2023-05-10T06:58:48;99331.69;;;14.58;52.94
76448;BME280;65284;51.040;13.722;2023-05-10T07:01:14;99344.44;;;14.56;52.43
76448;BME280;65284;51.040;13.722;2023-05-10T07:03:41;99348.56;;;14.59;52.48
76448;BME280;65284;51.040;13.722;2023-05-10T07:06:07;99342.81;;;14.62;52.55
76448;BME280;65284;51.040;13.722;2023-05-10T07:08:47;99348.97;;;14.69;52.03
76448;BME280;65284;51.040;13.722;2023-05-10T07:11:13;99342.41;;;14.71;52.46
76448;BME280;65284;51.040;13.722;2023-05-10T07:13:40;99335.19;;;14.72;52.25
76448;BME280;65284;51.040;13.722;2023-05-10T07:16:10;99345.28;;;14.83;52.15
76448;BME280;65284;51.040;13.722;2023-05-10T07:18:36;99342.41;;;14.85;52.01
76448;BME280;65284;51.040;13.722;2023-05-10T07:21:03;99343.84;;;14.87;52.01
76448;BME280;65284;51.040;13.722;2023-05-10T07:23:30;99344.88;;;14.86;51.69
76448;BME280;65284;51.040;13.722;2023-05-10T07:25:56;99346.94;;;14.91;51.92
76448;BME280;65284;51.040;13.722;2023-05-10T07:28:23;99340.97;;;14.95;51.70
76448;BME280;65284;51.040;13.722;2023-05-10T07:30:52;99350.22;;;14.99;51.87
76448;BME280;65284;51.040;13.722;2023-05-10T07:33:19;99337.88;;;15.05;51.89
76448;BME280;65284;51.040;13.722;2023-05-10T07:35:45;99350.22;;;15.13;52.00
76448;BME280;65284;51.040;13.722;2023-05-10T07:38:12;99339.31;;;15.14;51.78
76448;BME280;65284;51.040;13.722;2023-05-10T07:40:39;99337.47;;;15.15;51.77
76448;BME280;65284;51.040;13.722;2023-05-10T07:43:05;99350.44;;;15.18;51.79
76448;BME280;65284;51.040;13.722;2023-05-10T07:45:33;99347.34;;;15.21;51.76
76448;BME280;65284;51.040;13.722;2023-05-10T07:47:59;99340.53;;;15.25;51.99
76448;BME280;65284;51.040;13.722;2023-05-10T07:50:26;99342.78;;;15.35;51.22
76448;BME280;65284;51.040;13.722;2023-05-10T07:52:53;99340.34;;;15.33;51.54
76448;BME280;65284;51.040;13.722;2023-05-10T07:55:19;99347.53;;;15.39;51.52
76448;BME280;65284;51.040;13.722;2023-05-10T07:57:47;99336.19;;;15.51;51.45
76448;BME280;65284;51.040;13.722;2023-05-10T08:00:17;99346.47;;;15.54;51.42
76448;BME280;65284;51.040;13.722;2023-05-10T08:02:44;99342.75;;;15.55;51.03
76448;BME280;65284;51.040;13.722;2023-05-10T08:05:10;99343.59;;;15.48;51.34
76448;BME280;65284;51.040;13.722;2023-05-10T08:07:37;99344.00;;;15.52;51.50
76448;BME280;65284;51.040;13.722;2023-05-10T08:10:03;99336.97;;;15.58;51.38
76448;BME280;65284;51.040;13.722;2023-05-10T08:12:30;99340.47;;;15.58;50.97
76448;BME280;65284;51.040;13.722;2023-05-10T08:14:56;99339.88;;;15.63;51.01
76448;BME280;65284;51.040;13.722;2023-05-10T08:17:23;99339.88;;;15.69;51.40
76448;BME280;65284;51.040;13.722;2023-05-10T08:19:50;99343.75;;;15.80;50.93
76448;BME280;65284;51.040;13.722;2023-05-10T08:22:16;99337.34;;;15.81;51.25
76448;BME280;65284;51.040;13.722;2023-05-10T08:24:43;99344.31;;;15.96;50.61
76448;BME280;65284;51.040;13.722;2023-05-10T08:27:09;99344.47;;;16.07;50.58
76448;BME280;65284;51.040;13.722;2023-05-10T08:29:37;99348.81;;;16.02;50.55
76448;BME280;65284;51.040;13.722;2023-05-10T08:32:15;99344.66;;;16.06;50.59
76448;BME280;65284;51.040;13.722;2023-05-10T08:34:41;99352.03;;;16.17;50.18
76448;BME280;65284;51.040;13.722;2023-05-10T08:37:08;99350.31;;;16.29;50.34
76448;BME280;65284;51.040;13.722;2023-05-10T08:39:35;99356.94;;;16.33;50.55
76448;BME280;65284;51.040;13.722;2023-05-10T08:42:04;99353.19;;;16.34;50.62
76448;BME280;65284;51.040;13.722;2023-05-10T08:44:31;99355.69;;;16.36;50.24
76448;BME280;65284;51.040;13.722;2023-05-10T08:46:59;99365.91;;;16.46;49.77
76448;BME280;65284;51.040;13.722;2023-05-10T08:49:30;99363.28;;;16.39;50.51
76448;BME280;65284;51.040;13.722;2023-05-10T08:51:57;99369.66;;;16.45;50.58
76448;BME280;65284;51.040;13.722;2023-05-10T08:54:25;99368.41;;;16.41;50.38
76448;BME280;65284;51.040;13.722;2023-05-10T08:56:52;99374.78;;;16.46;50.06
76448;BME280;65284;51.040;13.722;2023-05-10T08:59:19;99377.41;;;16.53;49.80
76448;BME280;65284;51.040;13.722;2023-05-10T09:01:46;99380.72;;;16.55;49.89
76448;BME280;65284;51.040;13.722;2023-05-10T09:04:16;99379.22;;;16.59;50.09
76448;BME280;65284;51.040;13.722;2023-05-10T09:06:42;99380.84;;;16.67;49.54
76448;BME280;65284;51.040;13.722;2023-05-10T09:09:09;99391.31;;;16.75;49.11
76448;BME280;65284;51.040;13.722;2023-05-10T09:11:36;99383.09;;;16.70;49.42
76448;BME280;65284;51.040;13.722;2023-05-10T09:14:02;99388.66;;;16.75;49.10
76448;BME280;65284;51.040;13.722;2023-05-10T09:16:29;99385.13;;;16.81;49.88
76448;BME280;65284;51.040;13.722;2023-05-10T09:18:55;99383.00;;;16.90;49.48
76448;BME280;65284;51.040;13.722;2023-05-10T09:21:22;99385.00;;;16.94;49.37
76448;BME280;65284;51.040;13.722;2023-05-10T09:23:48;99386.00;;;17.00;49.34
76448;BME280;65284;51.040;13.722;2023-05-10T09:26:16;99387.38;;;17.09;49.98
76448;BME280;65284;51.040;13.722;2023-05-10T09:28:55;99382.81;;;17.16;49.79
76448;BME280;65284;51.040;13.722;2023-05-10T09:31:22;99382.94;;;17.21;49.97
76448;BME280;65284;51.040;13.722;2023-05-10T09:33:51;99395.28;;;17.29;49.17
76448;BME280;65284;51.040;13.722;2023-05-10T09:36:18;99384.78;;;17.27;49.17
76448;BME280;65284;51.040;13.722;2023-05-10T09:38:48;99394.63;;;17.34;49.05
76448;BME280;65284;51.040;13.722;2023-05-10T09:41:17;99383.88;;;17.34;49.05
76448;BME280;65284;51.040;13.722;2023-05-10T09:43:43;99396.88;;;17.37;49.54
76448;BME280;65284;51.040;13.722;2023-05-10T09:46:10;99388.97;;;17.42;49.36
76448;BME280;65284;51.040;13.722;2023-05-10T09:48:45;99390.00;;;17.41;49.22
76448;BME280;65284;51.040;13.722;2023-05-10T09:51:19;99389.13;;;17.47;49.25
76448;BME280;65284;51.040;13.722;2023-05-10T09:53:46;99391.09;;;17.58;48.96
76448;BME280;65284;51.040;13.722;2023-05-10T09:56:13;99394.69;;;17.70;48.33
76448;BME280;65284;51.040;13.722;2023-05-10T09:58:40;99392.28;;;17.62;49.50
76448;BME280;65284;51.040;13.722;2023-05-10T10:01:11;99390.47;;;17.81;48.78
76448;BME280;65284;51.040;13.722;2023-05-10T10:03:42;99396.94;;;17.92;48.76
76448;BME280;65284;51.040;13.722;2023-05-10T10:06:08;99390.22;;;18.01;49.11
76448;BME280;65284;51.040;13.722;2023-05-10T10:08:52;99386.88;;;18.06;48.23
76448;BME280;65284;51.040;13.722;2023-05-10T10:11:23;99389.84;;;18.16;47.94
76448;BME280;65284;51.040;13.722;2023-05-10T10:13:49;99388.50;;;18.07;48.02
76448;BME280;65284;51.040;13.722;2023-05-10T10:16:16;99382.75;;;18.22;47.74
76448;BME280;65284;51.040;13.722;2023-05-10T10:18:42;99386.66;;;18.26;47.92
76448;BME280;65284;51.040;13.722;2023-05-10T10:21:09;99391.22;;;18.25;47.44
76448;BME280;65284;51.040;13.722;2023-05-10T10:23:36;99389.84;;;18.34;47.64
76448;BME280;65284;51.040;13.722;2023-05-10T10:26:04;99384.69;;;18.33;46.84
76448;BME280;65284;51.040;13.722;2023-05-10T10:29:09;99396.19;;;18.22;47.41
76448;BME280;65284;51.040;13.722;2023-05-10T10:31:45;99381.28;;;18.26;47.68
76448;BME280;65284;51.040;13.722;2023-05-10T10:34:25;99389.03;;;18.34;47.52
76448;BME280;65284;51.040;13.722;2023-05-10T10:36:52;99384.53;;;18.28;47.24
76448;BME280;65284;51.040;13.722;2023-05-10T10:39:20;99382.00;;;18.33;47.26
76448;BME280;65284;51.040;13.722;2023-05-10T10:41:54;99380.88;;;18.40;47.19
76448;BME280;65284;51.040;13.722;2023-05-10T10:47:03;99388.19;;;18.33;47.09
76448;BME280;65284;51.040;13.722;2023-05-10T10:49:32;99388.56;;;18.37;47.25
76448;BME280;65284;51.040;13.722;2023-05-10T10:52:25;99399.44;;;18.42;47.17
76448;BME280;65284;51.040;13.722;2023-05-10T11:00:30;99382.19;;;18.50;46.75
76448;BME280;65284;51.040;13.722;2023-05-10T11:03:11;99394.69;;;18.44;47.22
76448;BME280;65284;51.040;13.722;2023-05-10T11:05:42;99391.47;;;18.65;46.47
76448;BME280;65284;51.040;13.722;2023-05-10T11:08:14;99392.94;;;18.50;47.40
76448;BME280;65284;51.040;13.722;2023-05-10T11:10:50;99389.03;;;18.64;47.01
76448;BME280;65284;51.040;13.722;2023-05-10T11:13:30;99391.56;;;18.59;47.31
76448;BME280;65284;51.040;13.722;2023-05-10T11:15:58;99390.31;;;18.61;47.09
76448;BME280;65284;51.040;13.722;2023-05-10T11:18:31;99400.16;;;18.68;47.13
76448;BME280;65284;51.040;13.722;2023-05-10T11:20:59;99388.03;;;18.77;47.02
76448;BME280;65284;51.040;13.722;2023-05-10T11:23:46;99396.59;;;18.85;47.34
76448;BME280;65284;51.040;13.722;2023-05-10T11:26:13;99389.63;;;18.96;46.67
76448;BME280;65284;51.040;13.722;2023-05-10T11:28:44;99394.66;;;19.04;47.01
76448;BME280;65284;51.040;13.722;2023-05-10T11:31:13;99391.84;;;18.99;46.65
76448;BME280;65284;51.040;13.722;2023-05-10T11:33:50;99404.75;;;19.21;46.83
76448;BME280;65284;51.040;13.722;2023-05-10T11:36:19;99395.63;;;19.22;46.44
76448;BME280;65284;51.040;13.722;2023-05-10T11:38:46;99389.53;;;19.15;46.21
76448;BME280;65284;51.040;13.722;2023-05-10T11:41:15;99395.84;;;19.08;45.95
76448;BME280;65284;51.040;13.722;2023-05-10T11:43:45;99393.25;;;19.14;46.46
76448;BME280;65284;51.040;13.722;2023-05-10T11:46:13;99393.25;;;19.14;46.45
76448;BME280;65284;51.040;13.722;2023-05-10T11:48:40;99395.28;;;19.30;46.29
76448;BME280;65284;51.040;13.722;2023-05-10T11:51:08;99398.56;;;19.32;45.75
76448;BME280;65284;51.040;13.722;2023-05-10T11:53:34;99396.44;;;19.34;45.36
76448;BME280;65284;51.040;13.722;2023-05-10T11:56:08;99399.03;;;19.29;45.30
76448;BME280;65284;51.040;13.722;2023-05-10T11:58:37;99401.94;;;19.39;45.13
76448;BME280;65284;51.040;13.722;2023-05-10T12:01:05;99399.72;;;19.36;44.84
76448;BME280;65284;51.040;13.722;2023-05-10T12:03:32;99404.06;;;19.37;45.24
76448;BME280;65284;51.040;13.722;2023-05-10T12:06:00;99410.75;;;19.35;44.98
76448;BME280;65284;51.040;13.722;2023-05-10T12:08:28;99408.06;;;19.46;45.09
76448;BME280;65284;51.040;13.722;2023-05-10T12:11:04;99410.38;;;19.54;45.22
76448;BME280;65284;51.040;13.722;2023-05-10T12:13:31;99417.78;;;19.47;45.72
76448;BME280;65284;51.040;13.722;2023-05-10T12:15:58;99407.59;;;19.49;45.07
76448;BME280;65284;51.040;13.722;2023-05-10T12:18:24;99408.28;;;19.57;45.33
76448;BME280;65284;51.040;13.722;2023-05-10T12:20:54;99409.44;;;19.61;44.15
76448;BME280;65284;51.040;13.722;2023-05-10T12:23:28;99403.38;;;19.77;45.36
76448;BME280;65284;51.040;13.722;2023-05-10T12:26:02;99405.72;;;19.85;44.30
76448;BME280;65284;51.040;13.722;2023-05-10T12:28:31;99407.84;;;19.83;43.97
76448;BME280;65284;51.040;13.722;2023-05-10T12:30:59;99419.28;;;19.90;43.80
76448;BME280;65284;51.040;13.722;2023-05-10T12:33:25;99411.81;;;19.92;44.17
76448;BME280;65284;51.040;13.722;2023-05-10T12:35:53;99408.66;;;19.84;43.70
76448;BME280;65284;51.040;13.722;2023-05-10T12:38:35;99426.22;;;19.86;43.41
76448;BME280;65284;51.040;13.722;2023-05-10T12:41:06;99418.09;;;20.10;42.37
76448;BME280;65284;51.040;13.722;2023-05-10T12:43:34;99410.84;;;19.98;42.97
76448;BME280;65284;51.040;13.722;2023-05-10T12:46:11;99419.66;;;19.94;43.41
76448;BME280;65284;51.040;13.722;2023-05-10T12:48:39;99421.63;;;19.98;43.71
76448;BME280;65284;51.040;13.722;2023-05-10T12:51:06;99427.25;;;20.09;43.30
76448;BME280;65284;51.040;13.722;2023-05-10T12:53:35;99431.69;;;20.15;43.19
76448;BME280;65284;51.040;13.722;2023-05-10T12:56:02;99417.63;;;20.13;43.54
76448;BME280;65284;51.040;13.722;2023-05-10T12:58:29;99417.22;;;20.33;43.67
76448;BME280;65284;51.040;13.722;2023-05-10T13:01:01;99421.44;;;20.29;43.41
76448;BME280;65284;51.040;13.722;2023-05-10T13:03:28;99434.72;;;20.30;43.41
76448;BME280;65284;51.040;13.722;2023-05-10T13:05:54;99433.09;;;20.29;43.19
76448;BME280;65284;51.040;13.722;2023-05-10T13:08:20;99434.22;;;20.33;42.98
76448;BME280;65284;51.040;13.722;2023-05-10T13:10:47;99430.47;;;20.34;43.30
76448;BME280;65284;51.040;13.722;2023-05-10T13:13:13;99422.09;;;20.48;43.20
76448;BME280;65284;51.040;13.722;2023-05-10T13:15:40;99433.00;;;20.53;43.17
76448;BME280;65284;51.040;13.722;2023-05-10T13:18:06;99430.19;;;20.48;42.52
76448;BME280;65284;51.040;13.722;2023-05-10T13:20:33;99429.56;;;20.69;42.77
76448;BME280;65284;51.040;13.722;2023-05-10T13:22:59;99430.81;;;20.78;42.69